B.franklin Reinauer — WDG4684 — position and weather

sailwx.info

Track history (hours):
 
Tides and Currents Weather Stations Pressure Air Temp Water Temp Dewpoint Dewpoint Depression Visibility Wind Speed Wind Dir Waves Ship Positions

B.franklin Reinauer

Owner: Reinauer Transportation Co.,LLC., STATEN ISLAND, NY. More information available from US FCC via Universal Licensing System and Coast Guard Vessel Documentation Center.

Last reported at 2018-Jun-22 09:33 UTC. Time now 2018-Jun-22 13:18 UTC.
Position N 40°35' W 074°13'.

Length 132 m; draft 5 m.

Type: . MMSI: 367539090.

Date/timePositionNaut miles runAvg speedWind from/ knotsBaromVisibWave heightAir tempDewpointWater temp
2018-Jun-22 09:33N 40°35' W 074°13'0 1.0
2018-Jun-22 09:30N 40°35' W 074°12'3 5.2
2018-Jun-22 08:53N 40°33' W 074°15'3 7.4
2018-Jun-22 08:28N 40°30' W 074°15'5 1.8
2018-Jun-22 05:25N 40°34' W 074°13'3 7.1
2018-Jun-22 05:00N 40°37' W 074°12'3 6.5
2018-Jun-22 04:30N 40°39' W 074°08'1 2.7
2018-Jun-22 03:59N 40°39' W 074°06'0 0.8
2018-Jun-22 03:25N 40°39' W 074°06'0 0.1
2018-Jun-22 02:58N 40°39' W 074°06'0 0.0
2018-Jun-22 02:28N 40°39' W 074°06'0 0.0
2018-Jun-22 01:46N 40°39' W 074°06'0 0.0
2018-Jun-22 01:28N 40°39' W 074°06'0 0.0
2018-Jun-22 00:58N 40°39' W 074°06'0 0.0
2018-Jun-22 00:28N 40°39' W 074°06'0 0.0
2018-Jun-21 23:58N 40°39' W 074°06'0 0.0
2018-Jun-21 23:28N 40°39' W 074°06'0 0.0
2018-Jun-21 22:58N 40°39' W 074°06'0 0.0
2018-Jun-21 22:28N 40°39' W 074°06'0 0.0
2018-Jun-21 21:52N 40°39' W 074°06'0 0.0
2018-Jun-21 21:28N 40°39' W 074°06'0 0.0
2018-Jun-21 21:00N 40°39' W 074°06'0 0.0
2018-Jun-21 20:30N 40°39' W 074°06'0 0.0
2018-Jun-21 20:00N 40°39' W 074°06'1 2.5
2018-Jun-21 19:30N 40°39' W 074°04'1 2.6
2018-Jun-21 19:01N 40°39' W 074°03'0 0.2
2018-Jun-21 18:31N 40°39' W 074°03'2 3.1
2018-Jun-21 18:01N 40°40' W 074°01'0 0.0
2018-Jun-21 17:29N 40°40' W 074°01'0 0.0
2018-Jun-21 16:59N 40°40' W 074°01'0 0.0
2018-Jun-21 16:28N 40°40' W 074°01'0 0.0
2018-Jun-21 16:01N 40°40' W 074°01'2 3.3
2018-Jun-21 15:30N 40°39' W 074°03'0 0.0
2018-Jun-21 14:58N 40°39' W 074°03'0 0.0
2018-Jun-21 14:28N 40°39' W 074°03'1 1.9
2018-Jun-21 14:01N 40°39' W 074°02'5 9.1
2018-Jun-21 13:30N 40°43' W 073°58'7 9.6
2018-Jun-21 12:47N 40°48' W 073°52'5710.0
2018-Jun-21 07:07N 41°07' W 072°40'110.4
2018-Jun-21 07:00N 41°07' W 072°39'510.5
2018-Jun-21 06:30N 41°08' W 072°32'510.4
2018-Jun-21 06:00N 41°10' W 072°26'510.0
2018-Jun-21 05:30N 41°11' W 072°19'5 9.2
2018-Jun-21 05:00N 41°12' W 072°13'104 7.6
2018-Jun-20 15:27N 42°21' W 070°29'4 9.8
2018-Jun-20 15:00N 42°25' W 070°29'5 9.9
2018-Jun-20 14:30N 42°30' W 070°29'5 9.9
2018-Jun-20 14:00N 42°35' W 070°30'510.5
2018-Jun-20 13:30N 42°40' W 070°30'510.2
2018-Jun-20 13:00N 42°45' W 070°32'5 9.9
2018-Jun-20 12:30N 42°49' W 070°35'510.1
2018-Jun-20 12:00N 42°54' W 070°37'510.0
2018-Jun-20 11:30N 42°59' W 070°40'610.0
2018-Jun-20 10:56N 43°04' W 070°42'8 0.3
2018-Jun-19 08:54N 42°57' W 070°39'4 9.1
2018-Jun-19 08:30N 42°53' W 070°37'4 9.0
2018-Jun-19 08:00N 42°49' W 070°35'5 8.9
2018-Jun-19 07:29N 42°45' W 070°33'4 8.8
2018-Jun-19 07:00N 42°41' W 070°30'4 8.7
2018-Jun-19 06:31N 42°37' W 070°30'4 8.9
2018-Jun-19 06:00N 42°32' W 070°29'4 8.8
2018-Jun-19 05:30N 42°28' W 070°29'5 9.0
2018-Jun-19 05:00N 42°23' W 070°29'4 9.0
2018-Jun-19 04:30N 42°19' W 070°29'5 9.2
2018-Jun-19 04:00N 42°14' W 070°29'5 9.1
2018-Jun-19 03:26N 42°09' W 070°29'4 8.9
2018-Jun-19 03:00N 42°05' W 070°28'124 8.4
2018-Jun-18 12:11N 40°45' W 072°34'2 9.1
2018-Jun-18 11:59N 40°44' W 072°37'35 9.4
2018-Jun-18 08:14N 40°32' W 073°20'23 9.9
2018-Jun-18 05:56N 40°28' W 073°50'5 9.5
2018-Jun-18 05:26N 40°27' W 073°56'4 9.0
2018-Jun-18 04:59N 40°29' W 074°01'11 0.7
2018-Jun-17 13:35N 40°32' W 074°15'0 0.0
2018-Jun-17 13:29N 40°32' W 074°15'0 0.0
2018-Jun-17 12:59N 40°32' W 074°15'0 0.0
2018-Jun-17 12:29N 40°32' W 074°15'0 0.0
2018-Jun-17 07:02N 40°32' W 074°15'0 1.3
2018-Jun-17 07:00N 40°32' W 074°15'5 5.6
2018-Jun-17 06:10N 40°36' W 074°12'1 8.0
2018-Jun-17 06:00N 40°37' W 074°12'3 6.6
2018-Jun-17 05:30N 40°39' W 074°08'4 7.5
2018-Jun-17 05:00N 40°39' W 074°03'1 2.5
2018-Jun-17 04:30N 40°40' W 074°02'1 1.4
2018-Jun-17 04:00N 40°39' W 074°02'0 0.6
2018-Jun-17 03:30N 40°39' W 074°03'0 0.0
2018-Jun-17 03:00N 40°39' W 074°03'0 0.0
2018-Jun-17 02:30N 40°39' W 074°03'0 0.0
2018-Jun-17 02:00N 40°39' W 074°03'0 0.0
2018-Jun-17 01:30N 40°39' W 074°03'0 0.0
2018-Jun-17 01:00N 40°39' W 074°02'0 0.1
2018-Jun-17 00:31N 40°39' W 074°03'1 1.2
2018-Jun-17 00:01N 40°39' W 074°03'3 5.8
2018-Jun-16 23:30N 40°39' W 074°07'1 1.0
2018-Jun-16 23:00N 40°38' W 074°08'0 0.0
2018-Jun-16 22:30N 40°38' W 074°08'0 0.0
2018-Jun-16 22:00N 40°38' W 074°08'0 0.0
2018-Jun-16 21:30N 40°38' W 074°08'0 0.0
2018-Jun-16 21:00N 40°38' W 074°08'0 0.0
2018-Jun-16 20:30N 40°38' W 074°08'0 0.0
2018-Jun-16 20:00N 40°38' W 074°08'0 0.0
2018-Jun-16 19:27N 40°38' W 074°08'0 0.0
2018-Jun-16 19:00N 40°38' W 074°08'0 0.0
2018-Jun-16 18:30N 40°38' W 074°08'0 0.0
2018-Jun-16 18:00N 40°38' W 074°08'0 0.0
2018-Jun-16 17:30N 40°38' W 074°08'0 0.0
2018-Jun-16 17:00N 40°38' W 074°08'0 0.0
2018-Jun-16 16:30N 40°38' W 074°08'0 0.0
2018-Jun-16 16:00N 40°38' W 074°08'0 0.1
2018-Jun-16 15:30N 40°38' W 074°08'0 0.0
2018-Jun-16 15:00N 40°38' W 074°08'3 6.8
2018-Jun-16 14:30N 40°39' W 074°03'2 3.8
2018-Jun-16 13:59N 40°40' W 074°01'0 0.0
2018-Jun-16 13:29N 40°40' W 074°01'0 0.1
2018-Jun-16 12:59N 40°40' W 074°01'0 0.0
2018-Jun-16 12:29N 40°40' W 074°01'0 0.0
2018-Jun-16 11:59N 40°40' W 074°01'0 0.0
2018-Jun-16 11:29N 40°40' W 074°01'0 0.0
2018-Jun-16 10:59N 40°40' W 074°01'0 0.0
2018-Jun-16 10:29N 40°40' W 074°01'0 0.0
2018-Jun-16 09:59N 40°40' W 074°01'0 0.0
2018-Jun-16 09:29N 40°40' W 074°01'0 0.0
2018-Jun-16 08:59N 40°40' W 074°01'0 0.0
2018-Jun-16 08:29N 40°40' W 074°01'0 0.0
2018-Jun-16 07:59N 40°40' W 074°01'0 0.0
2018-Jun-16 07:29N 40°40' W 074°01'0 0.0
2018-Jun-16 06:59N 40°40' W 074°01'0 0.0
2018-Jun-16 06:29N 40°40' W 074°01'0 0.0
2018-Jun-16 05:59N 40°40' W 074°01'0 0.0
2018-Jun-16 05:29N 40°40' W 074°01'0 0.0
2018-Jun-16 04:59N 40°40' W 074°01'0 0.0
2018-Jun-16 04:29N 40°40' W 074°01'0 0.0
2018-Jun-16 03:59N 40°40' W 074°01'0 0.0
2018-Jun-16 03:29N 40°40' W 074°01'0 0.0
2018-Jun-16 02:59N 40°40' W 074°01'0 0.0
2018-Jun-16 02:29N 40°40' W 074°01'0 0.0
2018-Jun-16 01:59N 40°40' W 074°01'0 0.0
2018-Jun-16 01:29N 40°40' W 074°01'0 0.0
2018-Jun-16 00:59N 40°40' W 074°01'0 0.0
2018-Jun-16 00:29N 40°40' W 074°01'0 0.0
2018-Jun-15 23:59N 40°40' W 074°01'0 0.0
2018-Jun-15 23:29N 40°40' W 074°01'0 0.0
2018-Jun-15 22:59N 40°40' W 074°01'0 0.0
2018-Jun-15 22:29N 40°40' W 074°01'0 0.0
2018-Jun-15 21:59N 40°40' W 074°01'0 0.0
2018-Jun-15 21:29N 40°40' W 074°01'0 0.0
2018-Jun-15 20:59N 40°40' W 074°01'0 0.0
2018-Jun-15 20:30N 40°40' W 074°01'1 1.5
2018-Jun-15 20:00N 40°40' W 074°02'0 0.0
2018-Jun-15 19:29N 40°40' W 074°02'0 0.0
2018-Jun-15 18:58N 40°40' W 074°02'0 0.0
2018-Jun-15 18:29N 40°40' W 074°02'0 0.0
2018-Jun-15 17:59N 40°40' W 074°02'0 0.0
2018-Jun-15 17:29N 40°40' W 074°02'1 2.4
2018-Jun-15 17:00N 40°39' W 074°03'3 5.4
2018-Jun-15 16:30N 40°41' W 074°01'4 8.9
2018-Jun-15 16:00N 40°45' W 073°58'4 3.9
2018-Jun-15 15:01N 40°48' W 073°54'0 0.7
2018-Jun-15 15:00N 40°48' W 073°54'0 0.2
2018-Jun-15 13:32N 40°48' W 073°55'1 2.0
2018-Jun-15 13:03N 40°48' W 073°53'4 8.2
2018-Jun-15 12:36N 40°46' W 073°57'110.9
2018-Jun-15 12:30N 40°45' W 073°58'4 9.0
2018-Jun-15 12:00N 40°41' W 074°01'1 1.7
2018-Jun-15 11:28N 40°40' W 074°01'0 0.0
2018-Jun-15 10:58N 40°40' W 074°01'0 0.0
2018-Jun-15 10:28N 40°40' W 074°01'0 0.0
2018-Jun-15 09:58N 40°40' W 074°01'0 0.0
2018-Jun-15 09:28N 40°40' W 074°01'0 0.0
2018-Jun-15 08:58N 40°40' W 074°01'0 0.0
2018-Jun-15 08:28N 40°40' W 074°01'0 0.0
2018-Jun-15 07:58N 40°40' W 074°01'0 0.0
2018-Jun-15 07:28N 40°40' W 074°01'0 0.0
2018-Jun-15 06:58N 40°40' W 074°01'0 0.0
2018-Jun-15 06:25N 40°40' W 074°01'0 0.0
2018-Jun-15 05:59N 40°40' W 074°01'0 0.0
2018-Jun-15 05:28N 40°40' W 074°01'0 0.0
2018-Jun-15 04:58N 40°40' W 074°01'0 0.0
2018-Jun-15 04:28N 40°40' W 074°01'0 0.0
2018-Jun-15 03:58N 40°40' W 074°01'0 0.0
2018-Jun-15 03:28N 40°40' W 074°01'0 0.0
2018-Jun-15 02:58N 40°40' W 074°01'0 0.0
2018-Jun-15 02:28N 40°40' W 074°01'0 0.0
2018-Jun-15 01:58N 40°40' W 074°01'0 0.0
2018-Jun-15 01:28N 40°40' W 074°01'0 0.0
2018-Jun-15 00:58N 40°40' W 074°01'0 0.0
2018-Jun-15 00:28N 40°40' W 074°01'0 0.0
2018-Jun-14 23:58N 40°40' W 074°01'0 0.0
2018-Jun-14 23:28N 40°40' W 074°01'0 0.0
2018-Jun-14 22:58N 40°40' W 074°01'0 0.0
2018-Jun-14 22:29N 40°40' W 074°01'0 0.0
2018-Jun-14 21:59N 40°40' W 074°01'0 0.0
2018-Jun-14 21:29N 40°40' W 074°01'0 0.0
2018-Jun-14 20:59N 40°40' W 074°01'0 0.0
2018-Jun-14 20:29N 40°40' W 074°01'0 0.0
2018-Jun-14 19:59N 40°40' W 074°01'0 0.0
2018-Jun-14 19:29N 40°40' W 074°01'0 0.0
2018-Jun-14 18:59N 40°40' W 074°01'0 0.0
2018-Jun-14 18:29N 40°40' W 074°01'0 0.0
2018-Jun-14 17:59N 40°40' W 074°01'0 0.0
2018-Jun-14 17:29N 40°40' W 074°01'1 1.9
2018-Jun-14 17:00N 40°40' W 074°02'1 2.4
2018-Jun-14 16:30N 40°39' W 074°03'1 1.4
2018-Jun-14 16:00N 40°40' W 074°03'1 2.5
2018-Jun-14 15:28N 40°40' W 074°01'0 0.4
2018-Jun-14 14:59N 40°40' W 074°01'0 0.0
2018-Jun-14 14:29N 40°40' W 074°01'0 0.0
2018-Jun-14 13:59N 40°40' W 074°01'0 0.0
2018-Jun-14 13:30N 40°40' W 074°01'0 0.5
2018-Jun-14 13:00N 40°40' W 074°01'0 0.0
2018-Jun-14 12:30N 40°40' W 074°01'0 0.0
2018-Jun-14 11:57N 40°40' W 074°01'0 0.0
2018-Jun-14 11:30N 40°40' W 074°01'0 0.0
2018-Jun-14 11:00N 40°40' W 074°01'0 0.0
2018-Jun-14 10:30N 40°40' W 074°01'0 0.0
2018-Jun-14 09:57N 40°40' W 074°01'0 0.0
2018-Jun-14 09:30N 40°40' W 074°01'0 0.0
2018-Jun-14 09:00N 40°40' W 074°01'0 0.0
2018-Jun-14 08:30N 40°40' W 074°01'0 0.0
2018-Jun-14 08:00N 40°40' W 074°01'0 0.0
2018-Jun-14 07:27N 40°40' W 074°01'0 0.0
2018-Jun-14 07:00N 40°40' W 074°01'0 0.0
2018-Jun-14 06:30N 40°40' W 074°01'0 0.0
2018-Jun-14 06:00N 40°40' W 074°01'0 0.0
2018-Jun-14 05:30N 40°40' W 074°01'0 0.0
2018-Jun-14 05:00N 40°40' W 074°01'0 0.0
2018-Jun-14 04:30N 40°40' W 074°01'0 0.0
2018-Jun-14 04:00N 40°40' W 074°01'1 2.3
2018-Jun-14 03:30N 40°40' W 074°02'4 8.7
2018-Jun-14 03:00N 40°38' W 074°08'0 0.7
2018-Jun-14 02:30N 40°39' W 074°08'4 2.5
2018-Jun-14 00:58N 40°36' W 074°12'3 6.7
2018-Jun-14 00:29N 40°39' W 074°10'5 9.6
2018-Jun-14 00:00N 40°39' W 074°04'2 4.2
2018-Jun-13 23:30N 40°40' W 074°02'1 1.0
2018-Jun-13 23:00N 40°40' W 074°01'0 0.0
2018-Jun-13 22:29N 40°40' W 074°01'0 0.0
2018-Jun-13 22:00N 40°40' W 074°01'0 0.1
2018-Jun-13 21:30N 40°40' W 074°01'0 0.1
2018-Jun-13 21:00N 40°40' W 074°01'0 0.0
2018-Jun-13 20:30N 40°40' W 074°01'1 1.5
2018-Jun-13 20:00N 40°40' W 074°02'0 0.1
2018-Jun-13 19:30N 40°40' W 074°02'1 1.4
2018-Jun-13 19:00N 40°40' W 074°01'0 0.0
2018-Jun-13 18:30N 40°40' W 074°01'0 0.0
2018-Jun-13 18:00N 40°40' W 074°01'0 0.1
2018-Jun-13 17:30N 40°40' W 074°01'0 0.4
2018-Jun-13 16:59N 40°40' W 074°01'0 0.0
2018-Jun-13 16:29N 40°40' W 074°01'0 0.0
2018-Jun-13 15:59N 40°40' W 074°01'0 0.0
2018-Jun-13 15:29N 40°40' W 074°01'0 0.0
2018-Jun-13 14:59N 40°40' W 074°01'0 0.0
2018-Jun-13 14:29N 40°40' W 074°01'0 0.0
2018-Jun-13 13:59N 40°40' W 074°01'0 0.0
2018-Jun-13 13:29N 40°40' W 074°01'0 0.0
2018-Jun-13 12:59N 40°40' W 074°01'0 0.0
2018-Jun-13 12:29N 40°40' W 074°01'0 0.0
2018-Jun-13 11:59N 40°40' W 074°01'0 0.0
2018-Jun-13 11:29N 40°40' W 074°01'0 0.0
2018-Jun-13 10:59N 40°40' W 074°01'0 0.0
2018-Jun-13 10:29N 40°40' W 074°01'0 0.0
2018-Jun-13 09:59N 40°40' W 074°01'0 0.0
2018-Jun-13 09:29N 40°40' W 074°01'0 0.0
2018-Jun-13 08:59N 40°40' W 074°01'0 0.0
2018-Jun-13 08:29N 40°40' W 074°01'0 0.0
2018-Jun-13 07:59N 40°40' W 074°01'0 0.0
2018-Jun-13 07:29N 40°40' W 074°01'0 0.0
2018-Jun-13 06:59N 40°40' W 074°01'0 0.0
2018-Jun-13 06:29N 40°40' W 074°01'0 0.0
2018-Jun-13 05:59N 40°40' W 074°01'0 0.0
2018-Jun-13 05:29N 40°40' W 074°01'0 0.0
2018-Jun-13 04:59N 40°40' W 074°01'0 0.0
2018-Jun-13 04:29N 40°40' W 074°01'0 0.0
2018-Jun-13 03:59N 40°40' W 074°01'0 0.0
2018-Jun-13 03:29N 40°40' W 074°01'0 0.0
2018-Jun-13 02:59N 40°40' W 074°01'0 0.0
2018-Jun-13 02:29N 40°40' W 074°01'0 0.0
2018-Jun-13 01:59N 40°40' W 074°01'0 0.0
2018-Jun-13 01:29N 40°40' W 074°01'0 0.0
2018-Jun-13 01:00N 40°40' W 074°01'0 0.0
2018-Jun-13 00:29N 40°40' W 074°01'0 0.0
2018-Jun-12 23:59N 40°40' W 074°01'0 0.0
2018-Jun-12 23:29N 40°40' W 074°01'0 0.0
2018-Jun-12 22:59N 40°40' W 074°01'0 0.0
2018-Jun-12 22:29N 40°40' W 074°01'0 0.0
2018-Jun-12 21:59N 40°40' W 074°01'1 2.5
2018-Jun-12 21:31N 40°40' W 074°03'1 2.3
2018-Jun-12 21:00N 40°40' W 074°01'0 0.0
2018-Jun-12 20:30N 40°40' W 074°01'0 0.0
2018-Jun-12 20:00N 40°40' W 074°01'0 0.0
2018-Jun-12 19:30N 40°40' W 074°01'0 0.0
2018-Jun-12 19:00N 40°40' W 074°01'0 0.0
2018-Jun-12 18:30N 40°40' W 074°01'0 0.0
2018-Jun-12 18:00N 40°40' W 074°01'0 0.0
2018-Jun-12 17:30N 40°40' W 074°01'0 0.0
2018-Jun-12 17:01N 40°40' W 074°01'2 3.7
2018-Jun-12 16:31N 40°42' W 074°01'2 3.6
2018-Jun-12 15:59N 40°40' W 074°01'0 0.0
2018-Jun-12 15:29N 40°40' W 074°01'0 0.0
2018-Jun-12 14:59N 40°40' W 074°01'0 0.0
2018-Jun-12 14:29N 40°40' W 074°01'0 0.0
2018-Jun-12 13:59N 40°40' W 074°01'0 0.0
2018-Jun-12 13:29N 40°40' W 074°01'0 0.0
2018-Jun-12 12:59N 40°40' W 074°01'0 0.0
2018-Jun-12 12:29N 40°40' W 074°01'0 0.0
2018-Jun-12 11:59N 40°40' W 074°01'0 0.0
2018-Jun-12 11:29N 40°40' W 074°01'0 0.0
2018-Jun-12 10:59N 40°40' W 074°01'0 0.0
2018-Jun-12 10:29N 40°40' W 074°01'0 0.0
2018-Jun-12 09:59N 40°40' W 074°01'  
Track history (hours):
 
Tides and Currents Weather Stations Pressure Air Temp Water Temp Dewpoint Dewpoint Depression Visibility Wind Speed Wind Dir Waves Ship Positions

B.franklin Reinauer

Owner: Reinauer Transportation Co.,LLC., STATEN ISLAND, NY. More information available from US FCC via Universal Licensing System and Coast Guard Vessel Documentation Center.

Last reported at 2018-Jun-22 09:33 UTC. Time now 2018-Jun-22 13:18 UTC.
Position N 40°35' W 074°13'.

Length 132 m; draft 5 m.

Type: . MMSI: 367539090.

Date/timePositionNaut miles runAvg speedWind from/ knotsBaromVisibWave heightAir tempDewpointWater temp
2018-Jun-22 09:33N 40°35' W 074°13'0 1.0
2018-Jun-22 09:30N 40°35' W 074°12'3 5.2
2018-Jun-22 08:53N 40°33' W 074°15'3 7.4
2018-Jun-22 08:28N 40°30' W 074°15'5 1.8
2018-Jun-22 05:25N 40°34' W 074°13'3 7.1
2018-Jun-22 05:00N 40°37' W 074°12'3 6.5
2018-Jun-22 04:30N 40°39' W 074°08'1 2.7
2018-Jun-22 03:59N 40°39' W 074°06'0 0.8
2018-Jun-22 03:25N 40°39' W 074°06'0 0.1
2018-Jun-22 02:58N 40°39' W 074°06'0 0.0
2018-Jun-22 02:28N 40°39' W 074°06'0 0.0
2018-Jun-22 01:46N 40°39' W 074°06'0 0.0
2018-Jun-22 01:28N 40°39' W 074°06'0 0.0
2018-Jun-22 00:58N 40°39' W 074°06'0 0.0
2018-Jun-22 00:28N 40°39' W 074°06'0 0.0
2018-Jun-21 23:58N 40°39' W 074°06'0 0.0
2018-Jun-21 23:28N 40°39' W 074°06'0 0.0
2018-Jun-21 22:58N 40°39' W 074°06'0 0.0
2018-Jun-21 22:28N 40°39' W 074°06'0 0.0
2018-Jun-21 21:52N 40°39' W 074°06'0 0.0
2018-Jun-21 21:28N 40°39' W 074°06'0 0.0
2018-Jun-21 21:00N 40°39' W 074°06'0 0.0
2018-Jun-21 20:30N 40°39' W 074°06'0 0.0
2018-Jun-21 20:00N 40°39' W 074°06'1 2.5
2018-Jun-21 19:30N 40°39' W 074°04'1 2.6
2018-Jun-21 19:01N 40°39' W 074°03'0 0.2
2018-Jun-21 18:31N 40°39' W 074°03'2 3.1
2018-Jun-21 18:01N 40°40' W 074°01'0 0.0
2018-Jun-21 17:29N 40°40' W 074°01'0 0.0
2018-Jun-21 16:59N 40°40' W 074°01'0 0.0
2018-Jun-21 16:28N 40°40' W 074°01'0 0.0
2018-Jun-21 16:01N 40°40' W 074°01'2 3.3
2018-Jun-21 15:30N 40°39' W 074°03'0 0.0
2018-Jun-21 14:58N 40°39' W 074°03'0 0.0
2018-Jun-21 14:28N 40°39' W 074°03'1 1.9
2018-Jun-21 14:01N 40°39' W 074°02'5 9.1
2018-Jun-21 13:30N 40°43' W 073°58'7 9.6
2018-Jun-21 12:47N 40°48' W 073°52'5710.0
2018-Jun-21 07:07N 41°07' W 072°40'110.4
2018-Jun-21 07:00N 41°07' W 072°39'510.5
2018-Jun-21 06:30N 41°08' W 072°32'510.4
2018-Jun-21 06:00N 41°10' W 072°26'510.0
2018-Jun-21 05:30N 41°11' W 072°19'5 9.2
2018-Jun-21 05:00N 41°12' W 072°13'104 7.6
2018-Jun-20 15:27N 42°21' W 070°29'4 9.8
2018-Jun-20 15:00N 42°25' W 070°29'5 9.9
2018-Jun-20 14:30N 42°30' W 070°29'5 9.9
2018-Jun-20 14:00N 42°35' W 070°30'510.5
2018-Jun-20 13:30N 42°40' W 070°30'510.2
2018-Jun-20 13:00N 42°45' W 070°32'5 9.9
2018-Jun-20 12:30N 42°49' W 070°35'510.1
2018-Jun-20 12:00N 42°54' W 070°37'510.0
2018-Jun-20 11:30N 42°59' W 070°40'610.0
2018-Jun-20 10:56N 43°04' W 070°42'8 0.3
2018-Jun-19 08:54N 42°57' W 070°39'4 9.1
2018-Jun-19 08:30N 42°53' W 070°37'4 9.0
2018-Jun-19 08:00N 42°49' W 070°35'5 8.9
2018-Jun-19 07:29N 42°45' W 070°33'4 8.8
2018-Jun-19 07:00N 42°41' W 070°30'4 8.7
2018-Jun-19 06:31N 42°37' W 070°30'4 8.9
2018-Jun-19 06:00N 42°32' W 070°29'4 8.8
2018-Jun-19 05:30N 42°28' W 070°29'5 9.0
2018-Jun-19 05:00N 42°23' W 070°29'4 9.0
2018-Jun-19 04:30N 42°19' W 070°29'5 9.2
2018-Jun-19 04:00N 42°14' W 070°29'5 9.1
2018-Jun-19 03:26N 42°09' W 070°29'4 8.9
2018-Jun-19 03:00N 42°05' W 070°28'124 8.4
2018-Jun-18 12:11N 40°45' W 072°34'2 9.1
2018-Jun-18 11:59N 40°44' W 072°37'35 9.4
2018-Jun-18 08:14N 40°32' W 073°20'23 9.9
2018-Jun-18 05:56N 40°28' W 073°50'5 9.5
2018-Jun-18 05:26N 40°27' W 073°56'4 9.0
2018-Jun-18 04:59N 40°29' W 074°01'11 0.7
2018-Jun-17 13:35N 40°32' W 074°15'0 0.0
2018-Jun-17 13:29N 40°32' W 074°15'0 0.0
2018-Jun-17 12:59N 40°32' W 074°15'0 0.0
2018-Jun-17 12:29N 40°32' W 074°15'0 0.0
2018-Jun-17 07:02N 40°32' W 074°15'0 1.3
2018-Jun-17 07:00N 40°32' W 074°15'5 5.6
2018-Jun-17 06:10N 40°36' W 074°12'1 8.0
2018-Jun-17 06:00N 40°37' W 074°12'3 6.6
2018-Jun-17 05:30N 40°39' W 074°08'4 7.5
2018-Jun-17 05:00N 40°39' W 074°03'1 2.5
2018-Jun-17 04:30N 40°40' W 074°02'1 1.4
2018-Jun-17 04:00N 40°39' W 074°02'0 0.6
2018-Jun-17 03:30N 40°39' W 074°03'0 0.0
2018-Jun-17 03:00N 40°39' W 074°03'0 0.0
2018-Jun-17 02:30N 40°39' W 074°03'0 0.0
2018-Jun-17 02:00N 40°39' W 074°03'0 0.0
2018-Jun-17 01:30N 40°39' W 074°03'0 0.0
2018-Jun-17 01:00N 40°39' W 074°02'0 0.1
2018-Jun-17 00:31N 40°39' W 074°03'1 1.2
2018-Jun-17 00:01N 40°39' W 074°03'3 5.8
2018-Jun-16 23:30N 40°39' W 074°07'1 1.0
2018-Jun-16 23:00N 40°38' W 074°08'0 0.0
2018-Jun-16 22:30N 40°38' W 074°08'0 0.0
2018-Jun-16 22:00N 40°38' W 074°08'0 0.0
2018-Jun-16 21:30N 40°38' W 074°08'0 0.0
2018-Jun-16 21:00N 40°38' W 074°08'0 0.0
2018-Jun-16 20:30N 40°38' W 074°08'0 0.0
2018-Jun-16 20:00N 40°38' W 074°08'0 0.0
2018-Jun-16 19:27N 40°38' W 074°08'0 0.0
2018-Jun-16 19:00N 40°38' W 074°08'0 0.0
2018-Jun-16 18:30N 40°38' W 074°08'0 0.0
2018-Jun-16 18:00N 40°38' W 074°08'0 0.0
2018-Jun-16 17:30N 40°38' W 074°08'0 0.0
2018-Jun-16 17:00N 40°38' W 074°08'0 0.0
2018-Jun-16 16:30N 40°38' W 074°08'0 0.0
2018-Jun-16 16:00N 40°38' W 074°08'0 0.1
2018-Jun-16 15:30N 40°38' W 074°08'0 0.0
2018-Jun-16 15:00N 40°38' W 074°08'3 6.8
2018-Jun-16 14:30N 40°39' W 074°03'2 3.8
2018-Jun-16 13:59N 40°40' W 074°01'0 0.0
2018-Jun-16 13:29N 40°40' W 074°01'0 0.1
2018-Jun-16 12:59N 40°40' W 074°01'0 0.0
2018-Jun-16 12:29N 40°40' W 074°01'0 0.0
2018-Jun-16 11:59N 40°40' W 074°01'0 0.0
2018-Jun-16 11:29N 40°40' W 074°01'0 0.0
2018-Jun-16 10:59N 40°40' W 074°01'0 0.0
2018-Jun-16 10:29N 40°40' W 074°01'0 0.0
2018-Jun-16 09:59N 40°40' W 074°01'0 0.0
2018-Jun-16 09:29N 40°40' W 074°01'0 0.0
2018-Jun-16 08:59N 40°40' W 074°01'0 0.0
2018-Jun-16 08:29N 40°40' W 074°01'0 0.0
2018-Jun-16 07:59N 40°40' W 074°01'0 0.0
2018-Jun-16 07:29N 40°40' W 074°01'0 0.0
2018-Jun-16 06:59N 40°40' W 074°01'0 0.0
2018-Jun-16 06:29N 40°40' W 074°01'0 0.0
2018-Jun-16 05:59N 40°40' W 074°01'0 0.0
2018-Jun-16 05:29N 40°40' W 074°01'0 0.0
2018-Jun-16 04:59N 40°40' W 074°01'0 0.0
2018-Jun-16 04:29N 40°40' W 074°01'0 0.0
2018-Jun-16 03:59N 40°40' W 074°01'0 0.0
2018-Jun-16 03:29N 40°40' W 074°01'0 0.0
2018-Jun-16 02:59N 40°40' W 074°01'0 0.0
2018-Jun-16 02:29N 40°40' W 074°01'0 0.0
2018-Jun-16 01:59N 40°40' W 074°01'0 0.0
2018-Jun-16 01:29N 40°40' W 074°01'0 0.0
2018-Jun-16 00:59N 40°40' W 074°01'0 0.0
2018-Jun-16 00:29N 40°40' W 074°01'0 0.0
2018-Jun-15 23:59N 40°40' W 074°01'0 0.0
2018-Jun-15 23:29N 40°40' W 074°01'0 0.0
2018-Jun-15 22:59N 40°40' W 074°01'0 0.0
2018-Jun-15 22:29N 40°40' W 074°01'0 0.0
2018-Jun-15 21:59N 40°40' W 074°01'0 0.0
2018-Jun-15 21:29N 40°40' W 074°01'0 0.0
2018-Jun-15 20:59N 40°40' W 074°01'0 0.0
2018-Jun-15 20:30N 40°40' W 074°01'1 1.5
2018-Jun-15 20:00N 40°40' W 074°02'0 0.0
2018-Jun-15 19:29N 40°40' W 074°02'0 0.0
2018-Jun-15 18:58N 40°40' W 074°02'0 0.0
2018-Jun-15 18:29N 40°40' W 074°02'0 0.0
2018-Jun-15 17:59N 40°40' W 074°02'0 0.0
2018-Jun-15 17:29N 40°40' W 074°02'1 2.4
2018-Jun-15 17:00N 40°39' W 074°03'3 5.4
2018-Jun-15 16:30N 40°41' W 074°01'4 8.9
2018-Jun-15 16:00N 40°45' W 073°58'4 3.9
2018-Jun-15 15:01N 40°48' W 073°54'0 0.7
2018-Jun-15 15:00N 40°48' W 073°54'0 0.2
2018-Jun-15 13:32N 40°48' W 073°55'1 2.0
2018-Jun-15 13:03N 40°48' W 073°53'4 8.2
2018-Jun-15 12:36N 40°46' W 073°57'110.9
2018-Jun-15 12:30N 40°45' W 073°58'4 9.0
2018-Jun-15 12:00N 40°41' W 074°01'1 1.7
2018-Jun-15 11:28N 40°40' W 074°01'0 0.0
2018-Jun-15 10:58N 40°40' W 074°01'0 0.0
2018-Jun-15 10:28N 40°40' W 074°01'0 0.0
2018-Jun-15 09:58N 40°40' W 074°01'0 0.0
2018-Jun-15 09:28N 40°40' W 074°01'0 0.0
2018-Jun-15 08:58N 40°40' W 074°01'0 0.0
2018-Jun-15 08:28N 40°40' W 074°01'0 0.0
2018-Jun-15 07:58N 40°40' W 074°01'0 0.0
2018-Jun-15 07:28N 40°40' W 074°01'0 0.0
2018-Jun-15 06:58N 40°40' W 074°01'0 0.0
2018-Jun-15 06:25N 40°40' W 074°01'0 0.0
2018-Jun-15 05:59N 40°40' W 074°01'0 0.0
2018-Jun-15 05:28N 40°40' W 074°01'0 0.0
2018-Jun-15 04:58N 40°40' W 074°01'0 0.0
2018-Jun-15 04:28N 40°40' W 074°01'0 0.0
2018-Jun-15 03:58N 40°40' W 074°01'0 0.0
2018-Jun-15 03:28N 40°40' W 074°01'0 0.0
2018-Jun-15 02:58N 40°40' W 074°01'0 0.0
2018-Jun-15 02:28N 40°40' W 074°01'0 0.0
2018-Jun-15 01:58N 40°40' W 074°01'0 0.0
2018-Jun-15 01:28N 40°40' W 074°01'0 0.0
2018-Jun-15 00:58N 40°40' W 074°01'0 0.0
2018-Jun-15 00:28N 40°40' W 074°01'0 0.0
2018-Jun-14 23:58N 40°40' W 074°01'0 0.0
2018-Jun-14 23:28N 40°40' W 074°01'0 0.0
2018-Jun-14 22:58N 40°40' W 074°01'0 0.0
2018-Jun-14 22:29N 40°40' W 074°01'0 0.0
2018-Jun-14 21:59N 40°40' W 074°01'0 0.0
2018-Jun-14 21:29N 40°40' W 074°01'0 0.0
2018-Jun-14 20:59N 40°40' W 074°01'0 0.0
2018-Jun-14 20:29N 40°40' W 074°01'0 0.0
2018-Jun-14 19:59N 40°40' W 074°01'0 0.0
2018-Jun-14 19:29N 40°40' W 074°01'0 0.0
2018-Jun-14 18:59N 40°40' W 074°01'0 0.0
2018-Jun-14 18:29N 40°40' W 074°01'0 0.0
2018-Jun-14 17:59N 40°40' W 074°01'0 0.0
2018-Jun-14 17:29N 40°40' W 074°01'1 1.9
2018-Jun-14 17:00N 40°40' W 074°02'1 2.4
2018-Jun-14 16:30N 40°39' W 074°03'1 1.4
2018-Jun-14 16:00N 40°40' W 074°03'1 2.5
2018-Jun-14 15:28N 40°40' W 074°01'0 0.4
2018-Jun-14 14:59N 40°40' W 074°01'0 0.0
2018-Jun-14 14:29N 40°40' W 074°01'0 0.0
2018-Jun-14 13:59N 40°40' W 074°01'0 0.0
2018-Jun-14 13:30N 40°40' W 074°01'0 0.5
2018-Jun-14 13:00N 40°40' W 074°01'0 0.0
2018-Jun-14 12:30N 40°40' W 074°01'0 0.0
2018-Jun-14 11:57N 40°40' W 074°01'0 0.0
2018-Jun-14 11:30N 40°40' W 074°01'0 0.0
2018-Jun-14 11:00N 40°40' W 074°01'0 0.0
2018-Jun-14 10:30N 40°40' W 074°01'0 0.0
2018-Jun-14 09:57N 40°40' W 074°01'0 0.0
2018-Jun-14 09:30N 40°40' W 074°01'0 0.0
2018-Jun-14 09:00N 40°40' W 074°01'0 0.0
2018-Jun-14 08:30N 40°40' W 074°01'0 0.0
2018-Jun-14 08:00N 40°40' W 074°01'0 0.0
2018-Jun-14 07:27N 40°40' W 074°01'0 0.0
2018-Jun-14 07:00N 40°40' W 074°01'0 0.0
2018-Jun-14 06:30N 40°40' W 074°01'0 0.0
2018-Jun-14 06:00N 40°40' W 074°01'0 0.0
2018-Jun-14 05:30N 40°40' W 074°01'0 0.0
2018-Jun-14 05:00N 40°40' W 074°01'0 0.0
2018-Jun-14 04:30N 40°40' W 074°01'0 0.0
2018-Jun-14 04:00N 40°40' W 074°01'1 2.3
2018-Jun-14 03:30N 40°40' W 074°02'4 8.7
2018-Jun-14 03:00N 40°38' W 074°08'0 0.7
2018-Jun-14 02:30N 40°39' W 074°08'4 2.5
2018-Jun-14 00:58N 40°36' W 074°12'3 6.7
2018-Jun-14 00:29N 40°39' W 074°10'5 9.6
2018-Jun-14 00:00N 40°39' W 074°04'2 4.2
2018-Jun-13 23:30N 40°40' W 074°02'1 1.0
2018-Jun-13 23:00N 40°40' W 074°01'0 0.0
2018-Jun-13 22:29N 40°40' W 074°01'0 0.0
2018-Jun-13 22:00N 40°40' W 074°01'0 0.1
2018-Jun-13 21:30N 40°40' W 074°01'0 0.1
2018-Jun-13 21:00N 40°40' W 074°01'0 0.0
2018-Jun-13 20:30N 40°40' W 074°01'1 1.5
2018-Jun-13 20:00N 40°40' W 074°02'0 0.1
2018-Jun-13 19:30N 40°40' W 074°02'1 1.4
2018-Jun-13 19:00N 40°40' W 074°01'0 0.0
2018-Jun-13 18:30N 40°40' W 074°01'0 0.0
2018-Jun-13 18:00N 40°40' W 074°01'0 0.1
2018-Jun-13 17:30N 40°40' W 074°01'0 0.4
2018-Jun-13 16:59N 40°40' W 074°01'0 0.0
2018-Jun-13 16:29N 40°40' W 074°01'0 0.0
2018-Jun-13 15:59N 40°40' W 074°01'0 0.0
2018-Jun-13 15:29N 40°40' W 074°01'0 0.0
2018-Jun-13 14:59N 40°40' W 074°01'0 0.0
2018-Jun-13 14:29N 40°40' W 074°01'0 0.0
2018-Jun-13 13:59N 40°40' W 074°01'0 0.0
2018-Jun-13 13:29N 40°40' W 074°01'0 0.0
2018-Jun-13 12:59N 40°40' W 074°01'0 0.0
2018-Jun-13 12:29N 40°40' W 074°01'0 0.0
2018-Jun-13 11:59N 40°40' W 074°01'0 0.0
2018-Jun-13 11:29N 40°40' W 074°01'0 0.0
2018-Jun-13 10:59N 40°40' W 074°01'0 0.0
2018-Jun-13 10:29N 40°40' W 074°01'0 0.0
2018-Jun-13 09:59N 40°40' W 074°01'0 0.0
2018-Jun-13 09:29N 40°40' W 074°01'0 0.0
2018-Jun-13 08:59N 40°40' W 074°01'0 0.0
2018-Jun-13 08:29N 40°40' W 074°01'0 0.0
2018-Jun-13 07:59N 40°40' W 074°01'0 0.0
2018-Jun-13 07:29N 40°40' W 074°01'0 0.0
2018-Jun-13 06:59N 40°40' W 074°01'0 0.0
2018-Jun-13 06:29N 40°40' W 074°01'0 0.0
2018-Jun-13 05:59N 40°40' W 074°01'0 0.0
2018-Jun-13 05:29N 40°40' W 074°01'0 0.0
2018-Jun-13 04:59N 40°40' W 074°01'0 0.0
2018-Jun-13 04:29N 40°40' W 074°01'0 0.0
2018-Jun-13 03:59N 40°40' W 074°01'0 0.0
2018-Jun-13 03:29N 40°40' W 074°01'0 0.0
2018-Jun-13 02:59N 40°40' W 074°01'0 0.0
2018-Jun-13 02:29N 40°40' W 074°01'0 0.0
2018-Jun-13 01:59N 40°40' W 074°01'0 0.0
2018-Jun-13 01:29N 40°40' W 074°01'0 0.0
2018-Jun-13 01:00N 40°40' W 074°01'0 0.0
2018-Jun-13 00:29N 40°40' W 074°01'0 0.0
2018-Jun-12 23:59N 40°40' W 074°01'0 0.0
2018-Jun-12 23:29N 40°40' W 074°01'0 0.0
2018-Jun-12 22:59N 40°40' W 074°01'0 0.0
2018-Jun-12 22:29N 40°40' W 074°01'0 0.0
2018-Jun-12 21:59N 40°40' W 074°01'1 2.5
2018-Jun-12 21:31N 40°40' W 074°03'1 2.3
2018-Jun-12 21:00N 40°40' W 074°01'0 0.0
2018-Jun-12 20:30N 40°40' W 074°01'0 0.0
2018-Jun-12 20:00N 40°40' W 074°01'0 0.0
2018-Jun-12 19:30N 40°40' W 074°01'0 0.0
2018-Jun-12 19:00N 40°40' W 074°01'0 0.0
2018-Jun-12 18:30N 40°40' W 074°01'0 0.0
2018-Jun-12 18:00N 40°40' W 074°01'0 0.0
2018-Jun-12 17:30N 40°40' W 074°01'0 0.0
2018-Jun-12 17:01N 40°40' W 074°01'2 3.7
2018-Jun-12 16:31N 40°42' W 074°01'2 3.6
2018-Jun-12 15:59N 40°40' W 074°01'0 0.0
2018-Jun-12 15:29N 40°40' W 074°01'0 0.0
2018-Jun-12 14:59N 40°40' W 074°01'0 0.0
2018-Jun-12 14:29N 40°40' W 074°01'0 0.0
2018-Jun-12 13:59N 40°40' W 074°01'0 0.0
2018-Jun-12 13:29N 40°40' W 074°01'0 0.0
2018-Jun-12 12:59N 40°40' W 074°01'0 0.0
2018-Jun-12 12:29N 40°40' W 074°01'0 0.0
2018-Jun-12 11:59N 40°40' W 074°01'0 0.0
2018-Jun-12 11:29N 40°40' W 074°01'0 0.0
2018-Jun-12 10:59N 40°40' W 074°01'0 0.0
2018-Jun-12 10:29N 40°40' W 074°01'0 0.0
2018-Jun-12 09:59N 40°40' W 074°01'  

Dump ship's entire track history